Terminal Aerodrome Forecast
Issued by NWS Pocatello, ID

Current Version | Previous Version | Text Only | Print | Product List | Glossary On
Versions: 1 2 3 4 5 6 7 8 9 10 11 12 13 14 15 16 17 18 19
000
FTUS45 KPIH 211720
TAFIDA
TAF
KIDA 211720Z 2118/2218 VRB05KT P6SM SCT007
      TEMPO 2118/2121 BKN007 OVC010
     FM212100 22005KT P6SM FEW050
     FM220300 18005KT P6SM SKC
     FM220900 19011KT P6SM VCSH SCT010 BKN035=

USA.gov is the U.S. government's official web portal to all federal, state and local government web resources and services.